createdAt,value
2017-09-15T00:02:25.853Z,20.23
2017-09-15T00:04:53.428Z,16.70
2017-09-15T00:07:21.796Z,15.55
2017-09-15T00:09:51.776Z,13.15
2017-09-15T00:12:19.348Z,13.20
2017-09-15T00:14:46.939Z,17.10
2017-09-15T00:17:15.277Z,13.63
2017-09-15T00:19:42.897Z,17.33
2017-09-15T00:22:11.253Z,15.83
2017-09-15T00:24:39.587Z,16.07
2017-09-15T00:27:07.388Z,10.30
2017-09-15T00:29:34.960Z,12.18
2017-09-15T00:32:03.327Z,14.60
2017-09-15T00:34:30.921Z,16.33
2017-09-15T00:36:59.273Z,16.57
2017-09-15T00:39:27.653Z,13.03
2017-09-15T00:41:55.220Z,14.97
2017-09-15T00:44:23.596Z,16.10
2017-09-15T00:46:52.789Z,16.40
2017-09-15T00:49:20.360Z,14.30
2017-09-15T00:51:48.180Z,11.93
2017-09-15T00:54:15.749Z,19.70
2017-09-15T00:56:43.456Z,13.47
2017-09-15T00:59:11.787Z,12.18
2017-09-15T01:01:39.359Z,14.80
2017-09-15T01:04:07.145Z,16.53
2017-09-15T01:06:34.732Z,11.90
2017-09-15T01:09:03.094Z,22.00
2017-09-15T01:11:31.489Z,16.85
2017-09-15T01:13:59.863Z,12.80
2017-09-15T01:16:28.204Z,15.93
2017-09-15T01:18:55.804Z,15.32
2017-09-15T01:21:24.137Z,12.53
2017-09-15T01:23:54.345Z,11.63
2017-09-15T01:26:21.952Z,14.38
2017-09-15T01:28:51.037Z,12.00
2017-09-15T01:31:18.630Z,14.33
2017-09-15T01:33:46.960Z,9.90
2017-09-15T01:36:14.556Z,11.10
2017-09-15T01:38:42.888Z,9.47
2017-09-15T01:41:10.472Z,12.70
2017-09-15T01:43:38.037Z,11.37
2017-09-15T01:46:05.628Z,8.10
2017-09-15T01:48:33.959Z,8.70
2017-09-15T01:51:01.856Z,14.02
2017-09-15T01:53:29.425Z,12.33
2017-09-15T01:55:57.764Z,16.48
2017-09-15T01:58:25.460Z,9.97
2017-09-15T02:00:53.113Z,12.30
2017-09-15T02:03:20.677Z,11.90
2017-09-15T02:05:48.268Z,8.30
2017-09-15T02:08:15.854Z,13.43
2017-09-15T02:10:43.599Z,10.53
2017-09-15T02:13:11.169Z,11.50
2017-09-15T02:15:38.735Z,10.60
2017-09-15T02:18:06.452Z,13.33
2017-09-15T02:20:34.782Z,7.93
2017-09-15T02:23:02.349Z,8.23
2017-09-15T02:25:29.973Z,10.60
2017-09-15T02:27:58.309Z,8.36
2017-09-15T02:30:25.890Z,7.00
2017-09-15T02:32:53.480Z,10.37
2017-09-15T02:35:21.051Z,13.00
2017-09-15T02:37:48.639Z,11.33
2017-09-15T02:40:16.212Z,9.97
2017-09-15T02:42:43.807Z,9.60
2017-09-15T02:45:12.152Z,10.07
2017-09-15T02:47:39.746Z,10.87
2017-09-15T02:50:08.096Z,5.62
2017-09-15T02:52:35.673Z,6.37
2017-09-15T02:55:04.773Z,9.33
2017-09-15T02:57:33.840Z,9.57
2017-09-15T03:00:01.521Z,9.00
2017-09-15T03:02:29.088Z,6.97
2017-09-15T03:04:56.685Z,12.47
2017-09-15T03:07:24.257Z,8.30
2017-09-15T03:09:52.996Z,7.00
2017-09-15T03:12:20.660Z,11.20
2017-09-15T03:14:48.226Z,15.33
2017-09-15T03:17:17.004Z,6.18
2017-09-15T03:19:46.080Z,7.30
2017-09-15T03:22:13.647Z,15.17
2017-09-15T03:24:41.236Z,6.17
2017-09-15T03:27:09.776Z,8.97
2017-09-15T03:29:37.368Z,5.47
2017-09-15T03:32:04.940Z,15.10
2017-09-15T03:34:33.296Z,18.47
2017-09-15T03:37:00.864Z,14.57
2017-09-15T03:39:29.216Z,16.83
2017-09-15T03:41:56.780Z,9.15
2017-09-15T03:44:24.373Z,10.80
2017-09-15T03:46:53.429Z,16.40
2017-09-15T03:49:21.016Z,8.87
2017-09-15T03:51:48.583Z,13.70
2017-09-15T03:54:16.917Z,16.03
2017-09-15T03:56:44.505Z,10.20
2017-09-15T03:59:12.064Z,15.60
2017-09-15T04:01:39.657Z,14.40
2017-09-15T04:04:07.990Z,12.27
2017-09-15T04:06:35.585Z,11.03
2017-09-15T04:09:04.096Z,13.52
2017-09-15T04:11:32.466Z,11.07
2017-09-15T04:14:00.024Z,16.77
2017-09-15T04:16:28.388Z,24.27
2017-09-15T04:18:55.951Z,14.45
2017-09-15T04:21:23.511Z,9.67
2017-09-15T04:23:52.892Z,11.73
2017-09-15T04:26:20.464Z,11.93
2017-09-15T04:28:48.823Z,11.70
2017-09-15T04:31:16.388Z,13.27
2017-09-15T04:33:43.964Z,12.80
2017-09-15T04:36:11.557Z,12.07
2017-09-15T04:38:39.884Z,21.10
2017-09-15T04:41:07.471Z,11.10
2017-09-15T04:43:35.132Z,20.87
2017-09-15T04:46:02.725Z,14.82
2017-09-15T04:48:31.052Z,17.50
2017-09-15T04:50:58.643Z,13.47
2017-09-15T04:53:26.294Z,13.33
2017-09-15T04:55:54.885Z,13.13
2017-09-15T04:58:22.539Z,14.33
2017-09-15T05:00:52.525Z,14.17
2017-09-15T05:03:20.141Z,11.80
2017-09-15T05:05:48.487Z,17.50
2017-09-15T05:08:16.052Z,13.97
2017-09-15T05:10:43.654Z,12.67
2017-09-15T05:13:12.012Z,18.80
2017-09-15T05:15:39.579Z,18.87
2017-09-15T05:18:08.257Z,15.63
2017-09-15T05:20:36.601Z,16.10
2017-09-15T05:23:04.193Z,14.60
2017-09-15T05:25:32.784Z,13.53
2017-09-15T05:28:00.436Z,16.20
2017-09-15T05:30:28.096Z,13.90
2017-09-15T05:32:55.692Z,18.30
2017-09-15T05:35:23.261Z,15.33
2017-09-15T05:37:51.707Z,13.00
2017-09-15T05:40:19.280Z,12.83
2017-09-15T05:42:47.607Z,12.10
2017-09-15T05:45:15.196Z,11.47
2017-09-15T05:47:42.766Z,17.83
2017-09-15T05:50:10.592Z,12.80
2017-09-15T05:52:38.159Z,15.93
2017-09-15T05:55:05.752Z,10.20
2017-09-15T05:57:33.321Z,12.23
2017-09-15T06:00:01.893Z,10.55
2017-09-15T06:02:29.456Z,12.07
2017-09-15T06:04:57.112Z,14.18
2017-09-15T06:07:24.716Z,14.20
2017-09-15T06:09:53.676Z,11.65
2017-09-15T06:12:21.340Z,12.27
2017-09-15T06:14:48.935Z,7.03
2017-09-15T06:17:16.505Z,18.93
2017-09-15T06:19:44.078Z,10.63
2017-09-15T06:22:11.714Z,11.00
2017-09-15T06:24:39.288Z,12.67
2017-09-15T06:27:06.896Z,12.18
2017-09-15T06:29:34.489Z,10.60
2017-09-15T06:32:02.838Z,12.75
2017-09-15T06:34:30.454Z,10.00
2017-09-15T06:36:58.024Z,13.40
2017-09-15T06:39:25.824Z,12.53
2017-09-15T06:41:53.428Z,8.03
2017-09-15T06:44:21.053Z,6.35
2017-09-15T06:46:48.623Z,6.80
2017-09-15T06:49:17.192Z,7.23
2017-09-15T06:51:44.755Z,6.20
2017-09-15T06:54:12.325Z,11.00
2017-09-15T06:56:39.912Z,8.37
2017-09-15T06:59:07.539Z,8.45
2017-09-15T07:01:35.136Z,12.07
2017-09-15T07:04:02.708Z,10.13
2017-09-15T07:06:30.269Z,7.47
2017-09-15T07:08:57.993Z,6.90
2017-09-15T07:11:26.328Z,10.23
2017-09-15T07:13:53.896Z,7.90
2017-09-15T07:16:21.480Z,4.80
2017-09-15T07:18:49.153Z,9.20
2017-09-15T07:21:16.809Z,7.13
2017-09-15T07:23:44.371Z,11.23
2017-09-15T07:26:12.036Z,6.73
2017-09-15T07:28:39.696Z,8.90
2017-09-15T07:31:07.264Z,8.02
2017-09-15T07:33:35.948Z,6.13
2017-09-15T07:36:03.519Z,8.05
2017-09-15T07:38:31.848Z,5.60
2017-09-15T07:40:59.436Z,6.62
2017-09-15T07:43:27.001Z,8.37
2017-09-15T07:45:55.361Z,6.35
2017-09-15T07:48:23.080Z,9.27
2017-09-15T07:50:51.624Z,7.57
2017-09-15T07:53:19.191Z,4.50
2017-09-15T07:55:46.852Z,5.50
2017-09-15T07:58:15.184Z,5.80
2017-09-15T08:00:42.792Z,7.20
2017-09-15T08:03:11.173Z,6.22
2017-09-15T08:05:38.837Z,8.43
2017-09-15T08:08:06.504Z,6.40
2017-09-15T08:10:34.078Z,8.03
2017-09-15T08:13:02.421Z,3.40
2017-09-15T08:15:30.024Z,5.70
2017-09-15T08:17:58.357Z,5.70
2017-09-15T08:20:25.936Z,3.70
2017-09-15T08:22:53.638Z,4.17
2017-09-15T08:25:21.263Z,5.30
2017-09-15T08:27:49.752Z,3.80
2017-09-15T08:30:18.328Z,4.03
2017-09-15T08:32:45.888Z,2.47
2017-09-15T08:35:13.556Z,4.20
2017-09-15T08:37:41.311Z,3.53
2017-09-15T08:40:10.413Z,2.84
2017-09-15T08:42:37.989Z,5.90
2017-09-15T08:45:06.524Z,6.12
2017-09-15T08:47:34.089Z,3.57
2017-09-15T08:50:01.652Z,5.55
2017-09-15T08:52:29.243Z,2.97
2017-09-15T08:54:58.316Z,4.57
2017-09-15T08:57:25.901Z,4.07
2017-09-15T08:59:54.376Z,3.27
2017-09-15T09:02:21.944Z,4.57
2017-09-15T09:04:50.948Z,5.33
2017-09-15T09:07:19.316Z,5.70
2017-09-15T09:09:46.951Z,3.63
2017-09-15T09:12:14.532Z,3.40
2017-09-15T09:14:42.883Z,5.03
2017-09-15T09:17:10.449Z,4.53
2017-09-15T09:19:38.033Z,5.90
2017-09-15T09:22:05.596Z,3.20
2017-09-15T09:24:33.960Z,5.87
2017-09-15T09:27:01.532Z,2.47
2017-09-15T09:29:29.097Z,5.40
2017-09-15T09:31:56.701Z,4.53
2017-09-15T09:34:24.268Z,3.63
2017-09-15T09:36:52.705Z,6.60
2017-09-15T09:39:20.464Z,5.97
2017-09-15T09:41:48.024Z,8.70
2017-09-15T09:44:15.584Z,7.30
2017-09-15T09:46:43.936Z,7.67
2017-09-15T09:49:11.533Z,5.43
2017-09-15T09:51:40.208Z,6.93
2017-09-15T09:54:07.781Z,6.00
2017-09-15T09:56:36.119Z,9.33
2017-09-15T09:59:03.728Z,11.48
2017-09-15T10:01:32.056Z,4.50
2017-09-15T10:03:59.644Z,7.03
2017-09-15T10:06:27.232Z,4.27
2017-09-15T10:08:55.589Z,5.03
2017-09-15T10:11:23.201Z,4.47
2017-09-15T10:13:51.600Z,9.30
2017-09-15T10:16:19.183Z,4.13
2017-09-15T10:18:46.856Z,6.37
2017-09-15T10:21:14.521Z,5.07
2017-09-15T10:23:42.877Z,3.93
2017-09-15T10:26:10.443Z,6.43
2017-09-15T10:28:38.116Z,6.23
2017-09-15T10:31:06.448Z,4.97
2017-09-15T10:33:34.161Z,4.10
2017-09-15T10:36:01.729Z,6.13
2017-09-15T10:38:29.287Z,4.87
2017-09-15T10:40:56.984Z,3.20
2017-09-15T10:43:24.544Z,6.23
2017-09-15T10:45:52.640Z,3.63
2017-09-15T10:48:20.224Z,5.60
2017-09-15T10:50:47.784Z,4.90
2017-09-15T10:53:15.373Z,4.63
2017-09-15T10:55:43.736Z,6.03
2017-09-15T10:58:17.045Z,3.17
2017-09-15T11:00:44.608Z,4.33
2017-09-15T11:03:12.972Z,5.80
2017-09-15T11:05:40.536Z,4.30
2017-09-15T11:08:08.286Z,8.40
2017-09-15T11:10:35.857Z,7.03
2017-09-15T11:13:03.529Z,4.00
2017-09-15T11:15:31.897Z,5.57
2017-09-15T11:17:59.469Z,7.13
2017-09-15T11:20:27.056Z,7.87
2017-09-15T11:22:54.620Z,5.40
2017-09-15T11:25:22.447Z,4.87
2017-09-15T11:27:51.659Z,3.43
2017-09-15T11:30:19.221Z,3.00
2017-09-15T11:32:47.577Z,7.20
2017-09-15T11:35:15.257Z,4.10
2017-09-15T11:37:42.912Z,4.87
2017-09-15T11:40:11.249Z,5.63
2017-09-15T11:42:38.816Z,4.03
2017-09-15T11:45:06.729Z,3.37
2017-09-15T11:47:34.296Z,2.67
2017-09-15T11:50:02.624Z,2.15
2017-09-15T11:52:30.208Z,2.50
2017-09-15T11:54:57.789Z,9.57
2017-09-15T11:57:26.177Z,3.67
2017-09-15T11:59:54.505Z,2.30
2017-09-15T12:02:22.108Z,1.67
2017-09-15T12:04:51.667Z,8.10
2017-09-15T12:07:19.232Z,4.50
2017-09-15T12:09:47.032Z,3.47
2017-09-15T12:12:14.696Z,6.43
2017-09-15T12:14:42.357Z,5.90
2017-09-15T12:17:09.953Z,2.60
2017-09-15T12:19:38.300Z,2.33
2017-09-15T12:22:05.869Z,4.30
2017-09-15T12:24:33.475Z,2.97
2017-09-15T12:27:01.042Z,4.30
2017-09-15T12:29:28.614Z,5.33
2017-09-15T12:31:56.200Z,4.17
2017-09-15T12:34:23.767Z,6.20
2017-09-15T12:36:52.695Z,2.87
2017-09-15T12:39:20.256Z,2.47
2017-09-15T12:41:47.821Z,1.80
2017-09-15T12:44:15.404Z,3.20
2017-09-15T12:46:42.970Z,4.00
2017-09-15T12:49:10.568Z,3.80
2017-09-15T12:51:38.221Z,2.83
2017-09-15T12:54:06.068Z,6.37
2017-09-15T12:56:33.655Z,2.13
2017-09-15T12:59:01.220Z,1.60
2017-09-15T13:01:28.876Z,2.57
2017-09-15T13:03:56.537Z,2.17
2017-09-15T13:06:24.133Z,3.30
2017-09-15T13:08:53.672Z,6.03
2017-09-15T13:11:21.341Z,3.03
2017-09-15T13:13:50.485Z,1.77
2017-09-15T13:16:18.811Z,3.43
2017-09-15T13:18:46.417Z,4.70
2017-09-15T13:21:14.756Z,1.97
2017-09-15T13:23:42.316Z,1.20
2017-09-15T13:26:09.916Z,1.47
2017-09-15T13:28:38.279Z,1.20
2017-09-15T13:31:05.948Z,2.17
2017-09-15T13:33:33.536Z,2.50
2017-09-15T13:36:01.177Z,3.97
2017-09-15T13:38:29.768Z,1.47
2017-09-15T13:41:02.488Z,2.22
2017-09-15T13:43:30.085Z,1.93
2017-09-15T13:45:57.672Z,2.63
2017-09-15T13:48:30.706Z,1.40
2017-09-15T13:50:58.307Z,1.48
2017-09-15T13:53:25.972Z,1.60
2017-09-15T13:55:53.575Z,1.10
2017-09-15T13:58:21.135Z,1.87
2017-09-15T14:00:48.701Z,2.20
2017-09-15T14:03:20.357Z,3.00
2017-09-15T14:05:47.915Z,1.83
2017-09-15T14:08:15.916Z,3.03
2017-09-15T14:10:43.506Z,3.67
2017-09-15T14:13:11.157Z,2.03
2017-09-15T14:15:38.767Z,5.17
2017-09-15T14:18:06.384Z,2.17
2017-09-15T14:20:33.948Z,2.43
2017-09-15T14:23:01.541Z,1.80
2017-09-15T14:25:29.104Z,2.90
2017-09-15T14:27:56.829Z,5.18
2017-09-15T14:30:25.157Z,3.83
2017-09-15T14:32:52.792Z,6.03
2017-09-15T14:35:21.157Z,2.60
2017-09-15T14:37:50.410Z,3.80
2017-09-15T14:40:17.977Z,5.70
2017-09-15T14:42:45.570Z,3.00
2017-09-15T14:45:14.237Z,3.73
2017-09-15T14:47:41.836Z,4.47
2017-09-15T14:50:10.197Z,3.33
2017-09-15T14:52:37.869Z,2.10
2017-09-15T14:55:05.469Z,4.55
2017-09-15T14:57:33.038Z,3.90
2017-09-15T15:00:00.613Z,3.00
2017-09-15T15:02:28.204Z,3.63
2017-09-15T15:04:55.768Z,5.87
2017-09-15T15:07:23.399Z,1.73
2017-09-15T15:09:52.736Z,3.23
2017-09-15T15:12:20.573Z,2.53
2017-09-15T15:14:48.257Z,6.30
2017-09-15T15:17:15.920Z,5.70
2017-09-15T15:19:43.580Z,5.60
2017-09-15T15:22:11.148Z,4.20
2017-09-15T15:24:38.708Z,2.60
2017-09-15T15:27:06.327Z,2.90
2017-09-15T15:29:33.889Z,1.60
2017-09-15T15:32:01.488Z,5.35
2017-09-15T15:34:29.076Z,6.00
2017-09-15T15:36:57.403Z,2.60
2017-09-15T15:39:25.377Z,5.77
2017-09-15T15:41:52.965Z,4.10
2017-09-15T15:44:20.556Z,2.23
2017-09-15T15:46:48.116Z,2.73
2017-09-15T15:49:15.845Z,4.10
2017-09-15T15:51:43.407Z,5.67
2017-09-15T15:54:10.978Z,2.20
2017-09-15T15:56:39.336Z,1.60
2017-09-15T15:59:06.915Z,1.70
2017-09-15T16:01:35.264Z,4.03
2017-09-15T16:04:02.833Z,2.90
2017-09-15T16:06:30.608Z,2.70
2017-09-15T16:08:58.273Z,2.60
2017-09-15T16:11:25.842Z,1.73
2017-09-15T16:13:54.524Z,1.58
2017-09-15T16:16:22.860Z,1.70
2017-09-15T16:18:52.493Z,2.60
2017-09-15T16:21:20.179Z,2.83
2017-09-15T16:23:48.568Z,2.80
2017-09-15T16:26:16.960Z,1.40
2017-09-15T16:28:44.525Z,3.60
2017-09-15T16:31:12.096Z,3.77
2017-09-15T16:33:39.684Z,3.20
2017-09-15T16:36:07.244Z,4.07
2017-09-15T16:38:40.800Z,2.43
2017-09-15T16:41:14.873Z,3.37
2017-09-15T16:43:48.440Z,4.47
2017-09-15T16:46:21.749Z,1.90
2017-09-15T16:48:56.716Z,5.10
2017-09-15T16:51:24.282Z,4.60
2017-09-15T16:53:53.477Z,2.00
2017-09-15T16:56:21.494Z,3.90
2017-09-15T16:58:50.006Z,2.00
2017-09-15T17:01:17.585Z,6.03
2017-09-15T17:03:46.660Z,2.23
2017-09-15T17:06:14.244Z,4.33
2017-09-15T17:08:41.908Z,3.75
2017-09-15T17:11:09.568Z,2.33
2017-09-15T17:13:38.325Z,5.33
2017-09-15T17:16:06.066Z,3.75
2017-09-15T17:18:33.670Z,4.70
2017-09-15T17:21:01.269Z,3.80
2017-09-15T17:23:29.601Z,4.37
2017-09-15T17:25:57.510Z,3.95
2017-09-15T17:28:25.099Z,4.13
2017-09-15T17:30:52.927Z,4.57
2017-09-15T17:33:21.291Z,3.60
2017-09-15T17:35:48.968Z,2.90
2017-09-15T17:38:16.620Z,3.87
2017-09-15T17:40:44.209Z,7.03
2017-09-15T17:43:12.541Z,9.50
2017-09-15T17:45:40.285Z,2.70
2017-09-15T17:48:07.892Z,3.80
2017-09-15T17:50:35.461Z,2.50
2017-09-15T17:53:03.921Z,3.70
2017-09-15T17:55:31.485Z,6.30
2017-09-15T17:57:59.056Z,3.55
2017-09-15T18:00:26.649Z,3.23
2017-09-15T18:02:54.272Z,6.50
2017-09-15T18:05:21.860Z,4.90
2017-09-15T18:07:50.704Z,3.03
2017-09-15T18:10:18.480Z,2.50
2017-09-15T18:12:46.154Z,3.13
2017-09-15T18:15:13.769Z,5.53
2017-09-15T18:17:41.361Z,3.20
2017-09-15T18:20:08.941Z,3.97
2017-09-15T18:22:36.765Z,2.70
2017-09-15T18:25:04.336Z,2.60
2017-09-15T18:27:31.900Z,3.75
2017-09-15T18:29:59.484Z,3.80
2017-09-15T18:32:27.144Z,2.60
2017-09-15T18:34:54.727Z,2.70
2017-09-15T18:37:23.056Z,3.70
2017-09-15T18:39:52.081Z,6.03
2017-09-15T18:42:21.152Z,5.03
2017-09-15T18:44:48.708Z,2.43
2017-09-15T18:47:16.312Z,5.00
2017-09-15T18:49:44.660Z,3.50
2017-09-15T18:52:12.228Z,2.43
2017-09-15T18:54:40.047Z,2.87
2017-09-15T18:57:07.617Z,2.00
2017-09-15T18:59:35.232Z,2.43
2017-09-15T19:02:02.988Z,2.60
2017-09-15T19:04:30.551Z,2.70
2017-09-15T19:06:58.941Z,3.60
2017-09-15T19:09:27.297Z,2.70
2017-09-15T19:11:54.872Z,5.30
2017-09-15T19:14:22.636Z,7.13
2017-09-15T19:16:51.012Z,2.53
2017-09-15T19:19:18.718Z,3.40
2017-09-15T19:21:46.341Z,4.93
2017-09-15T19:24:13.957Z,3.80
2017-09-15T19:26:41.562Z,6.13
2017-09-15T19:29:09.151Z,3.63
2017-09-15T19:31:38.001Z,2.83
2017-09-15T19:34:05.606Z,6.00
2017-09-15T19:36:34.198Z,4.43
2017-09-15T19:39:01.765Z,5.03
2017-09-15T19:41:29.375Z,4.30
2017-09-15T19:43:56.965Z,3.73
2017-09-15T19:46:25.292Z,7.53
2017-09-15T19:48:53.180Z,3.65
2017-09-15T19:51:20.744Z,7.60
2017-09-15T19:53:48.316Z,4.30
2017-09-15T19:56:15.972Z,3.60
2017-09-15T19:58:43.528Z,3.77
2017-09-15T20:01:11.111Z,6.13
2017-09-15T20:03:39.485Z,5.20
2017-09-15T20:06:07.822Z,5.03
2017-09-15T20:08:35.389Z,3.90
2017-09-15T20:11:03.226Z,5.37
2017-09-15T20:13:30.787Z,8.70
2017-09-15T20:15:58.394Z,11.43
2017-09-15T20:18:25.976Z,15.33
2017-09-15T20:20:54.308Z,11.57
2017-09-15T20:23:22.563Z,11.33
2017-09-15T20:25:51.935Z,8.07
2017-09-15T20:28:20.342Z,5.00
2017-09-15T20:30:47.962Z,5.73
2017-09-15T20:33:15.521Z,6.33
2017-09-15T20:35:43.970Z,4.60
2017-09-15T20:38:11.533Z,4.67
2017-09-15T20:40:39.115Z,3.33
2017-09-15T20:43:06.748Z,5.57
2017-09-15T20:45:34.344Z,17.20
2017-09-15T20:48:01.947Z,6.63
2017-09-15T20:50:29.504Z,8.93
2017-09-15T20:52:57.232Z,2.44
2017-09-15T20:55:25.573Z,3.00
2017-09-15T20:57:53.140Z,2.20
2017-09-15T21:00:20.724Z,3.00
2017-09-15T21:02:48.290Z,2.33
2017-09-15T21:05:15.876Z,3.73
2017-09-15T21:07:44.246Z,4.23
2017-09-15T21:10:12.705Z,2.27
2017-09-15T21:12:40.276Z,2.77
2017-09-15T21:15:07.841Z,1.80
2017-09-15T21:17:36.201Z,3.67
2017-09-15T21:20:03.823Z,2.60
2017-09-15T21:22:31.437Z,5.30
2017-09-15T21:24:59.020Z,3.63
2017-09-15T21:27:27.355Z,4.60
2017-09-15T21:29:54.949Z,9.73
2017-09-15T21:32:22.508Z,6.57
2017-09-15T21:34:50.305Z,7.40
2017-09-15T21:37:17.920Z,4.27
2017-09-15T21:39:45.475Z,6.70
2017-09-15T21:42:13.037Z,5.80
2017-09-15T21:44:40.628Z,6.50
2017-09-15T21:47:08.956Z,7.70
2017-09-15T21:49:36.538Z,1.83
2017-09-15T21:52:04.864Z,5.23
2017-09-15T21:54:32.453Z,4.93
2017-09-15T21:57:00.016Z,3.10
2017-09-15T21:59:27.809Z,1.83
2017-09-15T22:01:56.136Z,2.43
2017-09-15T22:04:29.432Z,3.57
2017-09-15T22:06:56.992Z,1.90
2017-09-15T22:09:24.552Z,2.13
2017-09-15T22:11:52.773Z,3.42
2017-09-15T22:14:20.333Z,2.70
2017-09-15T22:16:47.921Z,3.50
2017-09-15T22:19:16.251Z,3.63
2017-09-15T22:21:44.044Z,2.97
2017-09-15T22:24:11.610Z,3.83
2017-09-15T22:26:39.165Z,3.67
2017-09-15T22:29:06.764Z,4.53
2017-09-15T22:31:34.327Z,4.90
2017-09-15T22:34:01.948Z,7.10
2017-09-15T22:36:29.547Z,2.10
2017-09-15T22:38:57.105Z,4.68
2017-09-15T22:41:24.668Z,4.80
2017-09-15T22:46:19.661Z,3.80
2017-09-15T22:48:48.025Z,6.20
2017-09-15T22:51:15.585Z,3.93
2017-09-15T22:53:44.651Z,3.17
2017-09-15T22:56:12.248Z,5.40
2017-09-15T22:58:39.810Z,2.13
2017-09-15T23:01:07.412Z,1.80
2017-09-15T23:03:34.968Z,3.67
2017-09-15T23:06:02.557Z,2.43
2017-09-15T23:08:30.117Z,2.60
2017-09-15T23:10:57.870Z,2.20
2017-09-15T23:13:25.428Z,3.70
2017-09-15T23:15:52.984Z,2.85
2017-09-15T23:18:20.803Z,2.80
2017-09-15T23:20:48.360Z,3.12
2017-09-15T23:23:15.940Z,3.80
2017-09-15T23:25:44.304Z,2.10
2017-09-15T23:28:11.960Z,4.28
2017-09-15T23:30:39.524Z,3.13
2017-09-15T23:33:08.031Z,3.37
2017-09-15T23:35:36.355Z,4.90
2017-09-15T23:38:03.924Z,4.25
2017-09-15T23:40:31.608Z,7.03
2017-09-15T23:42:59.172Z,5.90
2017-09-15T23:45:26.763Z,6.23
2017-09-15T23:47:54.324Z,4.70
2017-09-15T23:50:21.951Z,6.40
2017-09-15T23:52:50.949Z,4.35
2017-09-15T23:55:18.537Z,3.77
2017-09-15T23:57:46.900Z,4.83
